Oaklandon, Indiana
Current Conditions -  °F | °C
As of 4:15 AM on Saturday 01 Nov 2014 (Local Time) from KMQJ Reporting Station
Scattered Clouds Scattered Clouds  
Wind Chill: 20°   Ceiling: Unl
Heat Index: 32°   Visibility: 10mi
Dew Point: 21°   Wind: 21mph
Humidity: 64%   Direction: 350°N
Pressure: 30.19"   Gusts: 29mph
Location:  39.8642°N, 86.0139°W
Report Text: KMQJ 010815Z AUTO 35018G25KT 10SM SCT050 SCT065 SCT080 00/M06 A3019 RMK AO1
Loading
Personal Weather Stations






























Interactive Weather Map
Tropical Storm Tracking
New forecast layout! Learn more

10-Day Weather Forecast

Advertisements
Track Severe Weather on mobile